createdAt,value
2018-09-14T00:00:24.553Z,11.50
2018-09-14T00:00:58.735Z,11.50
2018-09-14T00:01:33.189Z,11.50
2018-09-14T00:02:07.075Z,11.50
2018-09-14T00:02:40.961Z,11.50
2018-09-14T00:03:14.851Z,11.40
2018-09-14T00:03:49.362Z,11.40
2018-09-14T00:04:23.384Z,11.40
2018-09-14T00:04:57.232Z,11.40
2018-09-14T00:05:31.475Z,11.40
2018-09-14T00:06:05.373Z,11.40
2018-09-14T00:06:39.577Z,11.50
2018-09-14T00:07:13.473Z,11.40
2018-09-14T00:07:47.341Z,11.40
2018-09-14T00:08:21.487Z,11.40
2018-09-14T00:08:55.353Z,11.40
2018-09-14T00:09:29.207Z,11.40
2018-09-14T00:10:03.754Z,11.40
2018-09-14T00:10:38.218Z,11.40
2018-09-14T00:11:12.700Z,11.40
2018-09-14T00:11:46.617Z,11.40
2018-09-14T00:12:20.925Z,11.40
2018-09-14T00:12:55.207Z,11.30
2018-09-14T00:13:29.371Z,11.30
2018-09-14T00:14:04.173Z,11.30
2018-09-14T00:14:38.685Z,11.30
2018-09-14T00:15:13.153Z,11.30
2018-09-14T00:15:47.127Z,11.30
2018-09-14T00:16:21.355Z,11.30
2018-09-14T00:16:55.497Z,11.30
2018-09-14T00:17:29.382Z,11.30
2018-09-14T00:18:03.837Z,11.30
2018-09-14T00:18:37.698Z,11.30
2018-09-14T00:19:12.191Z,11.30
2018-09-14T00:19:46.283Z,11.20
2018-09-14T00:20:20.481Z,11.20
2018-09-14T00:20:54.606Z,11.30
2018-09-14T00:21:28.842Z,11.20
2018-09-14T00:22:02.703Z,11.20
2018-09-14T00:22:36.826Z,11.20
2018-09-14T00:23:10.981Z,11.20
2018-09-14T00:23:45.106Z,11.20
2018-09-14T00:24:18.981Z,11.20
2018-09-14T00:24:53.125Z,11.20
2018-09-14T00:25:27.261Z,11.20
2018-09-14T00:26:01.177Z,11.20
2018-09-14T00:26:35.361Z,11.20
2018-09-14T00:27:09.478Z,11.20
2018-09-14T00:27:43.735Z,11.20
2018-09-14T00:28:17.880Z,11.20
2018-09-14T00:28:52.024Z,11.20
2018-09-14T00:29:26.837Z,11.20
2018-09-14T00:30:00.965Z,11.20
2018-09-14T00:30:34.835Z,11.20
2018-09-14T00:31:09.341Z,11.20
2018-09-14T00:31:43.546Z,11.10
2018-09-14T00:32:17.715Z,11.20
2018-09-14T00:32:51.613Z,11.10
2018-09-14T00:33:25.739Z,11.20
2018-09-14T00:33:59.821Z,11.10
2018-09-14T00:34:34.315Z,11.10
2018-09-14T00:35:09.077Z,11.10
2018-09-14T00:35:42.997Z,11.10
2018-09-14T00:36:17.669Z,11.10
2018-09-14T00:36:52.175Z,11.10
2018-09-14T00:37:26.307Z,11.10
2018-09-14T00:38:00.533Z,11.10
2018-09-14T00:38:34.969Z,11.10
2018-09-14T00:39:10.201Z,11.10
2018-09-14T00:39:44.321Z,11.10
2018-09-14T00:40:18.451Z,11.10
2018-09-14T00:40:52.321Z,11.10
2018-09-14T00:41:33.298Z,11.10
2018-09-14T00:42:08.091Z,11.00
2018-09-14T00:42:42.199Z,11.00
2018-09-14T00:43:16.303Z,11.00
2018-09-14T00:43:50.803Z,11.00
2018-09-14T00:44:24.665Z,11.00
2018-09-14T00:44:58.872Z,11.00
2018-09-14T00:45:32.732Z,11.00
2018-09-14T00:46:06.595Z,11.00
2018-09-14T00:46:41.081Z,11.00
2018-09-14T00:47:15.189Z,11.00
2018-09-14T00:47:49.285Z,11.00
2018-09-14T00:48:23.434Z,10.90
2018-09-14T00:48:57.563Z,10.90
2018-09-14T00:49:31.688Z,10.90
2018-09-14T00:50:06.040Z,10.90
2018-09-14T00:50:40.209Z,10.90
2018-09-14T00:51:14.079Z,10.90
2018-09-14T00:51:48.239Z,10.90
2018-09-14T00:52:22.114Z,10.80
2018-09-14T00:52:56.261Z,10.80
2018-09-14T00:53:30.739Z,10.90
2018-09-14T00:54:04.923Z,10.90
2018-09-14T00:54:39.066Z,10.80
2018-09-14T00:55:12.938Z,10.80
2018-09-14T00:55:47.041Z,10.80
2018-09-14T00:56:20.891Z,10.80
2018-09-14T00:56:54.766Z,10.80
2018-09-14T00:57:29.256Z,10.80
2018-09-14T00:58:03.745Z,10.80
2018-09-14T00:58:38.008Z,10.80
2018-09-14T00:59:11.820Z,10.80
2018-09-14T00:59:45.742Z,10.80
2018-09-14T01:00:19.974Z,10.80
2018-09-14T01:00:54.102Z,10.70
2018-09-14T01:01:28.571Z,10.70
2018-09-14T01:02:02.738Z,10.70
2018-09-14T01:02:36.860Z,10.70
2018-09-14T01:03:10.965Z,10.70
2018-09-14T01:03:45.141Z,10.70
2018-09-14T01:04:19.284Z,10.70
2018-09-14T01:05:33.942Z,10.60
2018-09-14T01:06:08.403Z,10.60
2018-09-14T01:06:42.305Z,10.60
2018-09-14T01:07:16.534Z,10.60
2018-09-14T01:07:50.407Z,10.60
2018-09-14T01:08:24.558Z,10.60
2018-09-14T01:08:58.760Z,10.60
2018-09-14T01:09:32.630Z,10.60
2018-09-14T01:10:06.797Z,10.60
2018-09-14T01:10:40.694Z,10.60
2018-09-14T01:11:14.882Z,10.50
2018-09-14T01:11:49.006Z,10.60
2018-09-14T01:12:22.848Z,10.50
2018-09-14T01:12:56.708Z,10.60
2018-09-14T01:13:30.579Z,10.60
2018-09-14T01:14:04.963Z,10.50
2018-09-14T01:14:38.866Z,10.50
2018-09-14T01:15:13.321Z,10.50
2018-09-14T01:15:47.736Z,10.50
2018-09-14T01:16:21.881Z,10.50
2018-09-14T01:16:57.028Z,10.50
2018-09-14T01:17:31.182Z,10.50
2018-09-14T01:18:06.018Z,10.50
2018-09-14T01:18:39.912Z,10.50
2018-09-14T01:19:13.770Z,10.50
2018-09-14T01:19:47.934Z,10.50
2018-09-14T01:21:02.313Z,10.50
2018-09-14T01:21:36.552Z,10.50
2018-09-14T01:22:10.697Z,10.50
2018-09-14T01:22:44.834Z,10.40
2018-09-14T01:23:19.173Z,10.50
2018-09-14T01:23:53.362Z,10.40
2018-09-14T01:24:27.617Z,10.40
2018-09-14T01:25:01.760Z,10.40
2018-09-14T01:25:35.635Z,10.40
2018-09-14T01:26:09.761Z,10.40
2018-09-14T01:26:44.249Z,10.40
2018-09-14T01:27:18.435Z,10.40
2018-09-14T01:27:52.574Z,10.40
2018-09-14T01:28:26.755Z,10.40
2018-09-14T01:29:00.845Z,10.40
2018-09-14T01:29:34.965Z,10.40
2018-09-14T01:30:08.842Z,10.40
2018-09-14T01:30:43.067Z,10.40
2018-09-14T01:31:16.957Z,10.40
2018-09-14T01:31:51.137Z,10.40
2018-09-14T01:32:25.137Z,10.40
2018-09-14T01:32:59.321Z,10.40
2018-09-14T01:33:33.425Z,10.40
2018-09-14T01:34:07.665Z,10.40
2018-09-14T01:34:41.862Z,10.40
2018-09-14T01:35:21.186Z,10.40
2018-09-14T01:36:00.833Z,10.40
2018-09-14T01:36:34.709Z,10.40
2018-09-14T01:37:08.915Z,10.40
2018-09-14T01:37:43.049Z,10.40
2018-09-14T01:38:17.183Z,10.40
2018-09-14T01:38:51.063Z,10.40
2018-09-14T01:39:25.527Z,10.40
2018-09-14T01:39:59.437Z,10.40
2018-09-14T01:40:33.292Z,10.40
2018-09-14T01:41:08.064Z,10.40
2018-09-14T01:41:42.631Z,10.30
2018-09-14T01:42:16.829Z,10.40
2018-09-14T01:42:50.865Z,10.40
2018-09-14T01:43:25.038Z,10.30
2018-09-14T01:43:58.895Z,10.30
2018-09-14T01:44:33.112Z,10.40
2018-09-14T01:45:07.325Z,10.40
2018-09-14T01:45:41.971Z,10.30
2018-09-14T01:46:16.101Z,10.40
2018-09-14T01:46:50.270Z,10.30
2018-09-14T01:47:24.189Z,10.30
2018-09-14T01:47:58.302Z,10.30
2018-09-14T01:48:32.160Z,10.30
2018-09-14T01:49:06.700Z,10.30
2018-09-14T01:49:40.874Z,10.30
2018-09-14T01:50:14.997Z,10.30
2018-09-14T01:50:49.133Z,10.30
2018-09-14T01:51:23.250Z,10.30
2018-09-14T01:51:57.393Z,10.30
2018-09-14T01:52:31.492Z,10.30
2018-09-14T01:53:05.950Z,10.30
2018-09-14T01:53:40.086Z,10.30
2018-09-14T01:54:14.217Z,10.30
2018-09-14T01:54:48.141Z,10.30
2018-09-14T01:55:22.272Z,10.30
2018-09-14T01:55:56.421Z,10.30
2018-09-14T01:56:31.042Z,10.30
2018-09-14T01:57:05.047Z,10.30
2018-09-14T01:57:39.171Z,10.30
2018-09-14T01:58:13.286Z,10.30
2018-09-14T01:58:47.423Z,10.30
2018-09-14T01:59:21.825Z,10.30
2018-09-14T01:59:56.328Z,10.30
2018-09-14T02:00:30.481Z,10.30
2018-09-14T02:01:04.945Z,10.30
2018-09-14T02:01:38.817Z,10.30
2018-09-14T02:02:12.950Z,10.30
2018-09-14T02:02:47.590Z,10.30
2018-09-14T02:03:21.746Z,10.30
2018-09-14T02:03:56.292Z,10.20
2018-09-14T02:04:30.439Z,10.20
2018-09-14T02:05:05.116Z,10.20
2018-09-14T02:05:39.633Z,10.20
2018-09-14T02:06:13.927Z,10.20
2018-09-14T02:06:48.069Z,10.20
2018-09-14T02:07:22.216Z,10.20
2018-09-14T02:07:56.379Z,10.20
2018-09-14T02:08:30.490Z,10.20
2018-09-14T02:09:06.899Z,10.20
2018-09-14T02:09:40.763Z,10.20
2018-09-14T02:10:20.399Z,10.10
2018-09-14T02:10:54.268Z,10.20
2018-09-14T02:11:28.139Z,10.20
2018-09-14T02:12:02.271Z,10.20
2018-09-14T02:12:36.145Z,10.20
2018-09-14T02:13:10.281Z,10.10
2018-09-14T02:13:44.420Z,10.20
2018-09-14T02:14:18.538Z,10.10
2018-09-14T02:14:52.755Z,10.20
2018-09-14T02:15:26.888Z,10.10
2018-09-14T02:16:01.632Z,10.10
2018-09-14T02:16:35.832Z,10.10
2018-09-14T02:17:10.483Z,10.10
2018-09-14T02:17:45.459Z,10.10
2018-09-14T02:18:19.621Z,10.10
2018-09-14T02:18:53.750Z,10.10
2018-09-14T02:19:28.451Z,10.10
2018-09-14T02:20:02.611Z,10.10
2018-09-14T02:20:37.106Z,10.10
2018-09-14T02:21:11.265Z,10.10
2018-09-14T02:21:45.414Z,10.10
2018-09-14T02:22:19.538Z,10.10
2018-09-14T02:22:53.430Z,10.10
2018-09-14T02:23:27.580Z,10.10
2018-09-14T02:24:01.494Z,10.00
2018-09-14T02:24:35.678Z,10.00
2018-09-14T02:25:10.193Z,10.10
2018-09-14T02:25:44.688Z,10.10
2018-09-14T02:26:18.852Z,10.10
2018-09-14T02:26:52.992Z,10.00
2018-09-14T02:27:27.134Z,10.00
2018-09-14T02:28:01.608Z,10.00
2018-09-14T02:28:35.652Z,10.00
2018-09-14T02:29:09.812Z,10.00
2018-09-14T02:29:43.964Z,10.00
2018-09-14T02:30:17.850Z,10.00
2018-09-14T02:30:52.009Z,10.00
2018-09-14T02:31:26.148Z,10.00
2018-09-14T02:32:00.708Z,10.00
2018-09-14T02:32:35.210Z,10.00
2018-09-14T02:33:09.338Z,10.00
2018-09-14T02:33:43.510Z,10.00
2018-09-14T02:34:17.676Z,10.00
2018-09-14T02:34:51.780Z,10.00
2018-09-14T02:35:26.315Z,10.00
2018-09-14T02:36:00.483Z,10.00
2018-09-14T02:36:34.316Z,10.00
2018-09-14T02:37:08.490Z,10.00
2018-09-14T02:37:42.370Z,10.00
2018-09-14T02:38:16.485Z,10.00
2018-09-14T02:38:50.593Z,10.00
2018-09-14T02:39:24.732Z,10.00
2018-09-14T02:39:59.118Z,10.00
2018-09-14T02:40:33.243Z,10.00
2018-09-14T02:41:07.712Z,10.00
2018-09-14T02:41:41.868Z,10.00
2018-09-14T02:42:16.015Z,10.00
2018-09-14T02:42:50.170Z,10.00
2018-09-14T02:43:24.306Z,10.00
2018-09-14T02:43:58.499Z,10.00
2018-09-14T02:44:32.832Z,10.00
2018-09-14T02:45:07.646Z,10.00
2018-09-14T02:45:41.984Z,10.00
2018-09-14T02:46:16.140Z,10.00
2018-09-14T02:46:50.433Z,10.00
2018-09-14T02:47:24.560Z,10.00
2018-09-14T02:47:58.694Z,10.00
2018-09-14T02:48:32.848Z,10.00
2018-09-14T02:49:07.004Z,10.00
2018-09-14T02:49:41.198Z,10.00
2018-09-14T02:50:15.986Z,9.90
2018-09-14T02:50:50.136Z,10.00
2018-09-14T02:51:24.801Z,9.90
2018-09-14T02:51:58.924Z,9.90
2018-09-14T02:52:33.023Z,9.90
2018-09-14T02:53:07.132Z,9.90
2018-09-14T02:53:41.256Z,9.90
2018-09-14T02:54:15.400Z,9.90
2018-09-14T02:54:49.506Z,9.90
2018-09-14T02:55:23.985Z,9.90
2018-09-14T02:56:01.290Z,9.90
2018-09-14T02:56:35.402Z,9.90
2018-09-14T02:57:09.512Z,9.90
2018-09-14T02:57:43.646Z,9.90
2018-09-14T02:58:17.760Z,9.90
2018-09-14T02:58:51.884Z,9.90
2018-09-14T02:59:25.987Z,9.90
2018-09-14T03:00:00.148Z,9.90
2018-09-14T03:00:34.410Z,9.80
2018-09-14T03:01:08.526Z,9.90
2018-09-14T03:01:42.637Z,9.80
2018-09-14T03:02:16.824Z,9.90
2018-09-14T03:02:50.964Z,9.80
2018-09-14T03:03:25.140Z,9.80
2018-09-14T03:03:59.226Z,9.80
2018-09-14T03:04:33.386Z,9.80
2018-09-14T03:05:08.396Z,9.80
2018-09-14T03:05:42.606Z,9.80
2018-09-14T03:06:16.697Z,9.80
2018-09-14T03:06:50.822Z,9.90
2018-09-14T03:07:25.260Z,9.80
2018-09-14T03:07:59.380Z,9.80
2018-09-14T03:09:13.884Z,9.80
2018-09-14T03:09:48.007Z,9.80
2018-09-14T03:10:22.446Z,9.80
2018-09-14T03:10:56.576Z,9.80
2018-09-14T03:11:30.882Z,9.80
2018-09-14T03:12:04.988Z,9.80
2018-09-14T03:12:39.128Z,9.80
2018-09-14T03:13:13.214Z,9.80
2018-09-14T03:13:47.316Z,9.80
2018-09-14T03:14:21.211Z,9.80
2018-09-14T03:14:55.156Z,9.80
2018-09-14T03:15:29.030Z,9.80
2018-09-14T03:16:03.487Z,9.80
2018-09-14T03:16:37.950Z,9.80
2018-09-14T03:17:12.108Z,9.80
2018-09-14T03:17:46.228Z,9.80
2018-09-14T03:18:20.122Z,9.80
2018-09-14T03:18:54.616Z,9.80
2018-09-14T03:19:28.800Z,9.80
2018-09-14T03:20:02.737Z,9.70
2018-09-14T03:20:36.912Z,9.80
2018-09-14T03:21:11.048Z,9.80
2018-09-14T03:21:45.180Z,9.80
2018-09-14T03:22:19.322Z,9.70
2018-09-14T03:22:53.454Z,9.80
2018-09-14T03:23:27.609Z,9.70
2018-09-14T03:24:01.796Z,9.80
2018-09-14T03:24:35.917Z,9.80
2018-09-14T03:25:10.047Z,9.70
2018-09-14T03:25:44.184Z,9.80
2018-09-14T03:26:18.279Z,9.70
2018-09-14T03:26:52.431Z,9.80
2018-09-14T03:27:26.531Z,9.70
2018-09-14T03:28:00.683Z,9.70
2018-09-14T03:28:34.830Z,9.70
2018-09-14T03:29:09.336Z,9.70
2018-09-14T03:29:43.507Z,9.70
2018-09-14T03:30:17.821Z,9.70
2018-09-14T03:30:52.002Z,9.70
2018-09-14T03:31:26.309Z,9.70
2018-09-14T03:32:00.794Z,9.70
2018-09-14T03:32:35.231Z,9.70
2018-09-14T03:33:09.371Z,9.70
2018-09-14T03:33:43.504Z,9.70
2018-09-14T03:34:17.666Z,9.70
2018-09-14T03:34:51.886Z,9.70
2018-09-14T03:35:26.076Z,9.70
2018-09-14T03:36:00.106Z,9.70
2018-09-14T03:36:34.324Z,9.60
2018-09-14T03:37:09.328Z,9.60
2018-09-14T03:37:43.478Z,9.70
2018-09-14T03:38:17.739Z,9.60
2018-09-14T03:38:51.893Z,9.70
2018-09-14T03:39:26.234Z,9.60
2018-09-14T03:40:00.722Z,9.60
2018-09-14T03:40:34.860Z,9.60
2018-09-14T03:41:09.014Z,9.60
2018-09-14T03:41:43.447Z,9.60
2018-09-14T03:42:17.568Z,9.60
2018-09-14T03:42:51.394Z,9.60
2018-09-14T03:43:25.608Z,9.60
2018-09-14T03:43:59.707Z,9.60
2018-09-14T03:44:33.841Z,9.70
2018-09-14T03:45:07.980Z,9.70
2018-09-14T03:45:42.110Z,9.70
2018-09-14T03:46:16.231Z,9.70
2018-09-14T03:46:50.580Z,9.70
2018-09-14T03:47:24.712Z,9.70
2018-09-14T03:47:58.850Z,9.70
2018-09-14T03:48:32.984Z,9.70
2018-09-14T03:49:07.155Z,9.70
2018-09-14T03:49:41.364Z,9.70
2018-09-14T03:50:15.514Z,9.70
2018-09-14T03:50:50.111Z,9.70
2018-09-14T03:51:24.268Z,9.70
2018-09-14T03:51:58.413Z,9.70
2018-09-14T03:52:32.560Z,9.70
2018-09-14T03:53:07.037Z,9.70
2018-09-14T03:53:41.210Z,9.70
2018-09-14T03:54:15.342Z,9.70
2018-09-14T03:54:49.796Z,9.70
2018-09-14T03:55:24.196Z,9.70
2018-09-14T03:55:58.664Z,9.70
2018-09-14T03:56:32.800Z,9.70
2018-09-14T03:57:07.365Z,9.70
2018-09-14T03:57:41.680Z,9.70
2018-09-14T03:58:15.834Z,9.70
2018-09-14T03:58:49.931Z,9.70
2018-09-14T03:59:24.065Z,9.70
2018-09-14T03:59:58.636Z,9.70
2018-09-14T04:00:32.712Z,9.70
2018-09-14T04:01:07.377Z,9.70
2018-09-14T04:01:41.932Z,9.70
2018-09-14T04:02:16.770Z,9.70
2018-09-14T04:02:50.906Z,9.70
2018-09-14T04:03:24.752Z,9.70
2018-09-14T04:03:58.947Z,9.70
2018-09-14T04:04:33.118Z,9.60
2018-09-14T04:05:07.314Z,9.70
2018-09-14T04:05:41.872Z,9.60
2018-09-14T04:06:15.792Z,9.60
2018-09-14T04:06:49.958Z,9.60
2018-09-14T04:07:23.846Z,9.60
2018-09-14T04:07:58.077Z,9.60
2018-09-14T04:08:32.332Z,9.60
2018-09-14T04:09:08.354Z,9.60
2018-09-14T04:09:42.503Z,9.60
2018-09-14T04:10:16.670Z,9.60
2018-09-14T04:10:51.139Z,9.60
2018-09-14T04:11:26.041Z,9.60
2018-09-14T04:12:00.292Z,9.50
2018-09-14T04:12:34.418Z,9.50
2018-09-14T04:13:08.594Z,9.50
2018-09-14T04:13:42.682Z,9.60
2018-09-14T04:14:16.800Z,9.50
2018-09-14T04:14:50.904Z,9.50
2018-09-14T04:15:25.041Z,9.50
2018-09-14T04:15:59.141Z,9.50
2018-09-14T04:16:33.337Z,9.50
2018-09-14T04:17:07.175Z,9.50
2018-09-14T04:17:41.279Z,9.50
2018-09-14T04:18:15.436Z,9.50
2018-09-14T04:19:08.014Z,9.50
2018-09-14T04:19:42.238Z,9.50
2018-09-14T04:20:16.747Z,9.50
2018-09-14T04:20:50.862Z,9.50
2018-09-14T04:21:24.986Z,9.40
2018-09-14T04:21:59.082Z,9.50
2018-09-14T04:22:33.196Z,9.40
2018-09-14T04:23:07.372Z,9.40
2018-09-14T04:23:41.626Z,9.40
2018-09-14T04:24:16.193Z,9.40
2018-09-14T04:24:50.287Z,9.40
2018-09-14T04:25:24.503Z,9.40
2018-09-14T04:25:58.837Z,9.40
2018-09-14T04:26:32.961Z,9.40
2018-09-14T04:27:07.445Z,9.40
2018-09-14T04:27:41.573Z,9.40
2018-09-14T04:28:15.751Z,9.40
2018-09-14T04:28:49.905Z,9.40
2018-09-14T04:29:23.781Z,9.40
2018-09-14T04:29:57.669Z,9.40
2018-09-14T04:30:31.581Z,9.40
2018-09-14T04:31:05.752Z,9.40
2018-09-14T04:31:39.899Z,9.40
2018-09-14T04:32:14.370Z,9.40
2018-09-14T04:32:48.490Z,9.40
2018-09-14T04:33:22.641Z,9.40
2018-09-14T04:33:57.252Z,9.40
2018-09-14T04:34:31.339Z,9.40
2018-09-14T04:35:05.483Z,9.40
2018-09-14T04:35:39.822Z,9.40
2018-09-14T04:36:13.899Z,9.40
2018-09-14T04:36:48.359Z,9.40
2018-09-14T04:37:22.479Z,9.40
2018-09-14T04:37:57.136Z,9.40
2018-09-14T04:38:31.167Z,9.40
2018-09-14T04:39:08.018Z,9.40
2018-09-14T04:39:42.305Z,9.40
2018-09-14T04:40:16.485Z,9.40
2018-09-14T04:40:50.663Z,9.40
2018-09-14T04:41:24.825Z,9.40
2018-09-14T04:41:59.003Z,9.50
2018-09-14T04:42:33.617Z,9.50
2018-09-14T04:43:07.713Z,9.50
2018-09-14T04:43:41.610Z,9.50
2018-09-14T04:44:15.793Z,9.50
2018-09-14T04:44:49.925Z,9.50
2018-09-14T04:45:24.070Z,9.50
2018-09-14T04:45:58.237Z,9.50
2018-09-14T04:46:32.410Z,9.50
2018-09-14T04:47:06.387Z,9.60
2018-09-14T04:47:40.269Z,9.60
2018-09-14T04:48:14.452Z,9.60
2018-09-14T04:48:48.795Z,9.60
2018-09-14T04:49:23.437Z,9.60
2018-09-14T04:49:57.300Z,9.70
2018-09-14T04:50:31.419Z,9.70
2018-09-14T04:51:06.405Z,9.70
2018-09-14T04:51:40.870Z,9.70
2018-09-14T04:52:15.064Z,9.80
2018-09-14T04:52:49.391Z,9.80
2018-09-14T04:53:23.501Z,9.80
2018-09-14T04:53:57.625Z,9.80
2018-09-14T04:54:31.738Z,9.80
2018-09-14T04:55:06.258Z,9.80
2018-09-14T04:55:40.669Z,9.90
2018-09-14T04:56:21.285Z,9.80
2018-09-14T04:56:55.601Z,9.90
2018-09-14T04:57:29.849Z,9.90
2018-09-14T04:58:03.877Z,9.90
2018-09-14T04:58:38.023Z,9.90
2018-09-14T04:59:11.867Z,9.90
2018-09-14T04:59:46.003Z,10.00
2018-09-14T05:00:20.133Z,10.00
2018-09-14T05:00:54.245Z,10.00
2018-09-14T05:01:28.381Z,10.00
2018-09-14T05:02:02.879Z,10.00
2018-09-14T05:02:37.353Z,10.00
2018-09-14T05:03:11.219Z,10.10
2018-09-14T05:03:45.085Z,10.10
2018-09-14T05:04:21.731Z,10.10
2018-09-14T05:05:01.791Z,10.10
2018-09-14T05:05:36.271Z,10.20
2018-09-14T05:06:10.436Z,10.20
2018-09-14T05:06:44.277Z,10.20
2018-09-14T05:07:18.167Z,10.30
2018-09-14T05:07:52.313Z,10.30
2018-09-14T05:08:26.447Z,10.40
2018-09-14T05:09:00.537Z,10.40
2018-09-14T05:09:34.689Z,10.50
2018-09-14T05:10:08.838Z,10.50
2018-09-14T05:10:42.979Z,10.60
2018-09-14T05:11:17.159Z,10.60
2018-09-14T05:11:51.341Z,10.60
2018-09-14T05:12:25.457Z,10.70
2018-09-14T05:12:59.271Z,10.70
2018-09-14T05:13:33.449Z,10.80
2018-09-14T05:14:07.663Z,10.80
2018-09-14T05:14:41.903Z,10.90
2018-09-14T05:15:15.791Z,10.90
2018-09-14T05:15:49.926Z,10.90
2018-09-14T05:16:24.449Z,10.90
2018-09-14T05:16:58.553Z,11.00
2018-09-14T05:17:32.671Z,11.00
2018-09-14T05:18:07.389Z,11.00
2018-09-14T05:18:41.237Z,11.00
2018-09-14T05:19:15.102Z,11.10
2018-09-14T05:19:49.219Z,11.10
2018-09-14T05:20:23.353Z,11.10
2018-09-14T05:20:57.198Z,11.10
2018-09-14T05:21:31.722Z,11.20
2018-09-14T05:22:05.915Z,11.20
2018-09-14T05:22:40.366Z,11.20
2018-09-14T05:23:14.245Z,11.30
2018-09-14T05:23:48.827Z,11.30
2018-09-14T05:24:22.912Z,11.30
2018-09-14T05:24:57.374Z,11.30
2018-09-14T05:25:31.811Z,11.40
2018-09-14T05:26:06.379Z,11.40
2018-09-14T05:26:40.287Z,11.40
2018-09-14T05:27:14.142Z,11.40
2018-09-14T05:27:48.094Z,11.50
2018-09-14T05:28:21.964Z,11.50
2018-09-14T05:28:55.852Z,11.50
2018-09-14T05:29:29.722Z,11.60
2018-09-14T05:30:03.599Z,11.60
2018-09-14T05:30:37.510Z,11.60
2018-09-14T05:31:11.710Z,11.60
2018-09-14T05:31:45.979Z,11.60
2018-09-14T05:32:19.836Z,11.60
2018-09-14T05:32:54.239Z,11.70
2018-09-14T05:33:28.104Z,11.70
2018-09-14T05:34:02.333Z,11.70
2018-09-14T05:34:36.211Z,11.70
2018-09-14T05:35:10.486Z,11.70
2018-09-14T05:35:44.307Z,11.70
2018-09-14T05:36:18.509Z,11.70
2018-09-14T05:36:52.541Z,11.70
2018-09-14T05:37:26.408Z,11.70
2018-09-14T05:38:00.304Z,11.70
2018-09-14T05:38:34.498Z,11.70
2018-09-14T05:39:09.887Z,11.80
2018-09-14T05:39:43.767Z,11.80
2018-09-14T05:40:17.669Z,11.80
2018-09-14T05:40:51.499Z,11.80
2018-09-14T05:41:25.399Z,11.80
2018-09-14T05:41:59.288Z,11.80
2018-09-14T05:42:33.188Z,11.80
2018-09-14T05:43:07.062Z,11.80
2018-09-14T05:43:40.909Z,11.80
2018-09-14T05:44:14.747Z,11.80
2018-09-14T05:44:48.646Z,11.80
2018-09-14T05:45:22.511Z,11.80
2018-09-14T05:45:56.377Z,11.80
2018-09-14T05:46:30.245Z,11.80
2018-09-14T05:47:04.435Z,11.80
2018-09-14T05:47:38.724Z,11.80
2018-09-14T05:48:55.769Z,11.80
2018-09-14T05:49:29.632Z,11.80
2018-09-14T05:50:03.799Z,11.80
2018-09-14T05:50:37.677Z,11.70
2018-09-14T05:51:11.600Z,11.70
2018-09-14T05:51:45.626Z,11.70
2018-09-14T05:52:20.289Z,11.70
2018-09-14T05:52:54.236Z,11.70
2018-09-14T05:53:28.182Z,11.70
2018-09-14T05:54:02.082Z,11.60
2018-09-14T05:54:36.019Z,11.60
2018-09-14T05:55:10.043Z,11.60
2018-09-14T05:55:44.215Z,11.50
2018-09-14T05:56:18.099Z,11.50
2018-09-14T05:56:51.967Z,11.50
2018-09-14T05:57:26.270Z,11.50
2018-09-14T05:58:00.599Z,11.50
2018-09-14T05:58:34.474Z,11.50
2018-09-14T05:59:08.663Z,11.50
2018-09-14T05:59:42.710Z,11.50
2018-09-14T06:00:16.565Z,11.40
2018-09-14T06:00:50.916Z,11.50
2018-09-14T06:01:24.774Z,11.40
2018-09-14T06:01:58.661Z,11.40
2018-09-14T06:02:32.554Z,11.40
2018-09-14T06:03:06.454Z,11.40
2018-09-14T06:03:40.346Z,11.40
2018-09-14T06:04:14.222Z,11.40
2018-09-14T06:04:48.146Z,11.40
2018-09-14T06:05:22.035Z,11.50
2018-09-14T06:05:55.910Z,11.50
2018-09-14T06:06:29.817Z,11.50
2018-09-14T06:07:03.876Z,11.50
2018-09-14T06:07:37.810Z,11.50
2018-09-14T06:08:11.684Z,11.50
2018-09-14T06:08:45.560Z,11.50
2018-09-14T06:09:19.426Z,11.50
2018-09-14T06:09:53.321Z,11.50
2018-09-14T06:10:27.625Z,11.60
2018-09-14T06:11:01.500Z,11.60
2018-09-14T06:11:35.366Z,11.60
2018-09-14T06:12:09.274Z,11.60
2018-09-14T06:12:43.222Z,11.60
2018-09-14T06:13:17.024Z,11.60
2018-09-14T06:13:50.994Z,11.70
2018-09-14T06:14:24.848Z,11.70
2018-09-14T06:14:59.056Z,11.70
2018-09-14T06:15:32.929Z,11.70
2018-09-14T06:16:07.166Z,11.70
2018-09-14T06:16:41.034Z,11.70
2018-09-14T06:17:14.943Z,11.70
2018-09-14T06:17:48.835Z,11.70
2018-09-14T06:18:22.696Z,11.80
2018-09-14T06:18:56.920Z,11.80
2018-09-14T06:19:30.792Z,11.80
2018-09-14T06:20:05.292Z,11.80
2018-09-14T06:20:39.126Z,11.80
2018-09-14T06:21:13.136Z,11.80
2018-09-14T06:21:47.202Z,11.80
2018-09-14T06:22:21.062Z,11.90
2018-09-14T06:22:55.028Z,11.90
2018-09-14T06:23:29.098Z,11.90
2018-09-14T06:24:03.032Z,11.90
2018-09-14T06:24:36.931Z,11.90
2018-09-14T06:25:10.802Z,12.00
2018-09-14T06:25:44.682Z,12.00
2018-09-14T06:26:18.535Z,12.00
2018-09-14T06:26:52.787Z,12.00
2018-09-14T06:27:26.724Z,12.10
2018-09-14T06:28:00.573Z,12.10
2018-09-14T06:28:34.437Z,12.10
2018-09-14T06:29:08.310Z,12.10
2018-09-14T06:29:42.254Z,12.10
2018-09-14T06:30:16.268Z,12.20
2018-09-14T06:30:50.115Z,12.20
2018-09-14T06:31:24.007Z,12.20
2018-09-14T06:31:57.914Z,12.20
2018-09-14T06:32:32.080Z,12.30
2018-09-14T06:33:06.645Z,12.30
2018-09-14T06:33:40.502Z,12.30
2018-09-14T06:34:14.380Z,12.30
2018-09-14T06:34:48.888Z,12.40
2018-09-14T06:35:23.024Z,12.40
2018-09-14T06:35:56.908Z,12.40
2018-09-14T06:36:30.767Z,12.50
2018-09-14T06:37:04.633Z,12.50
2018-09-14T06:37:38.986Z,12.50
2018-09-14T06:38:12.916Z,12.50
2018-09-14T06:38:46.928Z,12.60
2018-09-14T06:39:21.142Z,12.60
2018-09-14T06:39:55.012Z,12.60
2018-09-14T06:40:28.880Z,12.60
2018-09-14T06:41:02.750Z,12.70
2018-09-14T06:41:36.631Z,12.70
2018-09-14T06:42:10.543Z,12.70
2018-09-14T06:42:44.467Z,12.80
2018-09-14T06:43:18.544Z,12.80
2018-09-14T06:43:52.946Z,12.80
2018-09-14T06:44:26.806Z,12.90
2018-09-14T06:45:00.687Z,12.90
2018-09-14T06:45:34.761Z,12.90
2018-09-14T06:46:09.224Z,13.00
2018-09-14T06:46:43.437Z,13.00
2018-09-14T06:47:17.429Z,13.10
2018-09-14T06:47:51.287Z,13.10
2018-09-14T06:48:25.183Z,13.10
2018-09-14T06:48:59.063Z,13.10
2018-09-14T06:49:32.948Z,13.20
2018-09-14T06:50:06.818Z,13.20
2018-09-14T06:50:40.722Z,13.20
2018-09-14T06:51:14.606Z,13.30
2018-09-14T06:51:48.507Z,13.30
2018-09-14T06:52:22.378Z,13.30
2018-09-14T06:52:56.379Z,13.30
2018-09-14T06:53:30.629Z,13.30
2018-09-14T06:54:04.668Z,13.40
2018-09-14T06:54:38.699Z,13.40
2018-09-14T06:55:12.915Z,13.40
2018-09-14T06:55:46.811Z,13.40
2018-09-14T06:56:20.701Z,13.40
2018-09-14T06:56:54.601Z,13.50
2018-09-14T06:57:28.477Z,13.50
2018-09-14T06:58:02.695Z,13.50
2018-09-14T06:58:36.601Z,13.60
2018-09-14T06:59:10.468Z,13.60
2018-09-14T06:59:44.354Z,13.60
2018-09-14T07:00:18.296Z,13.60
2018-09-14T07:00:52.277Z,13.70
2018-09-14T07:01:26.177Z,13.70
2018-09-14T07:02:00.019Z,13.70
2018-09-14T07:02:33.876Z,13.70
2018-09-14T07:03:07.921Z,13.70
2018-09-14T07:03:41.994Z,13.80
2018-09-14T07:04:15.926Z,13.80
2018-09-14T07:04:50.130Z,13.80
2018-09-14T07:05:24.371Z,13.90
2018-09-14T07:05:58.247Z,13.90
2018-09-14T07:06:32.512Z,13.90
2018-09-14T07:07:06.519Z,13.90
2018-09-14T07:07:40.406Z,14.00
2018-09-14T07:08:14.274Z,14.00
2018-09-14T07:08:48.178Z,14.00
2018-09-14T07:09:22.056Z,14.10
2018-09-14T07:09:55.917Z,14.00
2018-09-14T07:10:29.791Z,14.10
2018-09-14T07:11:03.670Z,14.10
2018-09-14T07:11:37.962Z,14.10
2018-09-14T07:12:12.007Z,14.20
2018-09-14T07:12:45.857Z,14.20
2018-09-14T07:13:19.772Z,14.30
2018-09-14T07:13:54.820Z,14.30
2018-09-14T07:14:28.904Z,14.30
2018-09-14T07:15:02.745Z,14.30
2018-09-14T07:15:36.649Z,14.30
2018-09-14T07:16:10.720Z,14.40
2018-09-14T07:16:44.586Z,14.40
2018-09-14T07:17:18.427Z,14.40
2018-09-14T07:17:52.295Z,14.40
2018-09-14T07:18:26.171Z,14.40
2018-09-14T07:19:00.586Z,14.40
2018-09-14T07:19:34.678Z,14.50
2018-09-14T07:20:08.928Z,14.50
2018-09-14T07:20:42.797Z,14.60
2018-09-14T07:21:16.832Z,14.60
2018-09-14T07:21:50.788Z,14.60
2018-09-14T07:22:24.921Z,14.60
2018-09-14T07:22:58.862Z,14.60
2018-09-14T07:23:32.767Z,14.70
2018-09-14T07:24:06.668Z,14.70
2018-09-14T07:24:40.603Z,14.70
2018-09-14T07:25:14.931Z,14.70
2018-09-14T07:25:48.796Z,14.80
2018-09-14T07:26:23.047Z,14.80
2018-09-14T07:26:56.927Z,14.80
2018-09-14T07:27:31.397Z,14.80